sensor_id;sensor_type;location;lat;lon;timestamp;temperature;humidity
69776;DHT22;57049;51.450;-2.516;2023-11-21T00:02:21;10.16;99.88
69776;DHT22;57049;51.450;-2.516;2023-11-21T00:04:48;10.18;99.69
69776;DHT22;57049;51.450;-2.516;2023-11-21T00:07:13;10.17;99.87
69776;DHT22;57049;51.450;-2.516;2023-11-21T00:09:40;10.13;99.83
69776;DHT22;57049;51.450;-2.516;2023-11-21T00:12:07;10.23;99.64
69776;DHT22;57049;51.450;-2.516;2023-11-21T00:14:38;10.17;99.69
69776;DHT22;57049;51.450;-2.516;2023-11-21T00:17:06;10.21;99.75
69776;DHT22;57049;51.450;-2.516;2023-11-21T00:19:32;10.20;99.73
69776;DHT22;57049;51.450;-2.516;2023-11-21T00:21:58;10.18;99.71
69776;DHT22;57049;51.450;-2.516;2023-11-21T00:24:25;10.13;99.89
69776;DHT22;57049;51.450;-2.516;2023-11-21T00:26:51;10.11;99.99
69776;DHT22;57049;51.450;-2.516;2023-11-21T00:29:16;10.10;99.99
69776;DHT22;57049;51.450;-2.516;2023-11-21T00:31:44;10.14;99.99
69776;DHT22;57049;51.450;-2.516;2023-11-21T00:34:12;10.13;99.99
69776;DHT22;57049;51.450;-2.516;2023-11-21T00:36:37;10.16;99.91
69776;DHT22;57049;51.450;-2.516;2023-11-21T00:39:03;10.17;99.98
69776;DHT22;57049;51.450;-2.516;2023-11-21T00:41:31;10.21;99.90
69776;DHT22;57049;51.450;-2.516;2023-11-21T00:43:56;10.20;99.84
69776;DHT22;57049;51.450;-2.516;2023-11-21T00:46:22;10.21;99.95
69776;DHT22;57049;51.450;-2.516;2023-11-21T00:48:49;10.24;99.87
69776;DHT22;57049;51.450;-2.516;2023-11-21T00:51:14;10.25;99.71
69776;DHT22;57049;51.450;-2.516;2023-11-21T00:53:40;10.27;99.80
69776;DHT22;57049;51.450;-2.516;2023-11-21T00:56:06;10.21;99.96
69776;DHT22;57049;51.450;-2.516;2023-11-21T00:58:32;10.21;99.99
69776;DHT22;57049;51.450;-2.516;2023-11-21T01:00:57;10.18;99.99
69776;DHT22;57049;51.450;-2.516;2023-11-21T01:03:23;10.18;99.99
69776;DHT22;57049;51.450;-2.516;2023-11-21T01:05:48;10.17;99.99
69776;DHT22;57049;51.450;-2.516;2023-11-21T01:08:18;10.18;99.99
69776;DHT22;57049;51.450;-2.516;2023-11-21T01:10:43;10.13;99.99
69776;DHT22;57049;51.450;-2.516;2023-11-21T01:13:09;10.17;99.99
69776;DHT22;57049;51.450;-2.516;2023-11-21T01:15:35;10.14;99.99
69776;DHT22;57049;51.450;-2.516;2023-11-21T01:18:01;10.14;99.99
69776;DHT22;57049;51.450;-2.516;2023-11-21T01:20:26;10.10;99.99
69776;DHT22;57049;51.450;-2.516;2023-11-21T01:22:52;10.09;99.99
69776;DHT22;57049;51.450;-2.516;2023-11-21T01:25:19;10.10;99.99
69776;DHT22;57049;51.450;-2.516;2023-11-21T01:27:44;10.10;99.99
69776;DHT22;57049;51.450;-2.516;2023-11-21T01:30:10;10.10;99.99
69776;DHT22;57049;51.450;-2.516;2023-11-21T01:32:36;10.09;99.99
69776;DHT22;57049;51.450;-2.516;2023-11-21T01:35:02;10.06;99.99
69776;DHT22;57049;51.450;-2.516;2023-11-21T01:37:30;10.04;99.99
69776;DHT22;57049;51.450;-2.516;2023-11-21T01:39:56;10.04;99.99
69776;DHT22;57049;51.450;-2.516;2023-11-21T01:42:21;10.07;99.99
69776;DHT22;57049;51.450;-2.516;2023-11-21T01:44:47;10.07;99.99
69776;DHT22;57049;51.450;-2.516;2023-11-21T01:47:13;10.03;99.99
69776;DHT22;57049;51.450;-2.516;2023-11-21T01:49:39;10.09;99.99
69776;DHT22;57049;51.450;-2.516;2023-11-21T01:52:06;10.07;99.99
69776;DHT22;57049;51.450;-2.516;2023-11-21T01:54:32;10.04;99.99
69776;DHT22;57049;51.450;-2.516;2023-11-21T01:56:58;10.03;99.99
69776;DHT22;57049;51.450;-2.516;2023-11-21T01:59:36;10.06;99.99
69776;DHT22;57049;51.450;-2.516;2023-11-21T02:02:06;10.01;99.99
69776;DHT22;57049;51.450;-2.516;2023-11-21T02:04:35;10.00;99.99
69776;DHT22;57049;51.450;-2.516;2023-11-21T02:07:04;9.97;99.99
69776;DHT22;57049;51.450;-2.516;2023-11-21T02:09:32;10.00;99.99
69776;DHT22;57049;51.450;-2.516;2023-11-21T02:11:59;10.01;99.99
69776;DHT22;57049;51.450;-2.516;2023-11-21T02:14:25;10.00;99.99
69776;DHT22;57049;51.450;-2.516;2023-11-21T02:16:52;10.01;99.99
69776;DHT22;57049;51.450;-2.516;2023-11-21T02:19:20;9.99;99.99
69776;DHT22;57049;51.450;-2.516;2023-11-21T02:21:51;9.97;99.99
69776;DHT22;57049;51.450;-2.516;2023-11-21T02:24:21;9.99;99.99
69776;DHT22;57049;51.450;-2.516;2023-11-21T02:26:48;9.97;99.99
69776;DHT22;57049;51.450;-2.516;2023-11-21T02:29:19;9.97;99.99
69776;DHT22;57049;51.450;-2.516;2023-11-21T02:31:47;10.00;99.99
69776;DHT22;57049;51.450;-2.516;2023-11-21T02:34:14;9.99;99.99
69776;DHT22;57049;51.450;-2.516;2023-11-21T02:36:40;10.00;99.99
69776;DHT22;57049;51.450;-2.516;2023-11-21T02:39:08;10.04;99.99
69776;DHT22;57049;51.450;-2.516;2023-11-21T02:41:34;10.00;99.99
69776;DHT22;57049;51.450;-2.516;2023-11-21T02:44:00;9.96;99.99
69776;DHT22;57049;51.450;-2.516;2023-11-21T02:46:26;10.00;99.99
69776;DHT22;57049;51.450;-2.516;2023-11-21T02:48:51;10.01;99.99
69776;DHT22;57049;51.450;-2.516;2023-11-21T02:51:19;10.00;99.99
69776;DHT22;57049;51.450;-2.516;2023-11-21T02:53:44;9.99;99.99
69776;DHT22;57049;51.450;-2.516;2023-11-21T02:56:11;10.01;99.99
69776;DHT22;57049;51.450;-2.516;2023-11-21T02:58:37;10.03;99.99
69776;DHT22;57049;51.450;-2.516;2023-11-21T03:01:03;10.04;99.99
69776;DHT22;57049;51.450;-2.516;2023-11-21T03:03:30;10.00;99.99
69776;DHT22;57049;51.450;-2.516;2023-11-21T03:05:56;10.00;99.99
69776;DHT22;57049;51.450;-2.516;2023-11-21T03:08:21;10.01;99.99
69776;DHT22;57049;51.450;-2.516;2023-11-21T03:10:47;9.99;99.99
69776;DHT22;57049;51.450;-2.516;2023-11-21T03:13:12;10.01;99.99
69776;DHT22;57049;51.450;-2.516;2023-11-21T03:15:38;10.03;99.99
69776;DHT22;57049;51.450;-2.516;2023-11-21T03:18:04;10.04;99.99
69776;DHT22;57049;51.450;-2.516;2023-11-21T03:20:30;10.04;99.99
69776;DHT22;57049;51.450;-2.516;2023-11-21T03:22:55;10.06;99.99
69776;DHT22;57049;51.450;-2.516;2023-11-21T03:25:21;10.06;99.99
69776;DHT22;57049;51.450;-2.516;2023-11-21T03:27:49;10.07;99.99
69776;DHT22;57049;51.450;-2.516;2023-11-21T03:30:15;10.11;99.99
69776;DHT22;57049;51.450;-2.516;2023-11-21T03:32:40;10.09;99.99
69776;DHT22;57049;51.450;-2.516;2023-11-21T03:35:06;10.07;99.99
69776;DHT22;57049;51.450;-2.516;2023-11-21T03:37:32;10.06;99.99
69776;DHT22;57049;51.450;-2.516;2023-11-21T03:39:57;10.06;99.99
69776;DHT22;57049;51.450;-2.516;2023-11-21T03:42:23;10.07;99.99
69776;DHT22;57049;51.450;-2.516;2023-11-21T03:44:50;10.06;99.99
69776;DHT22;57049;51.450;-2.516;2023-11-21T03:47:16;10.06;99.99
69776;DHT22;57049;51.450;-2.516;2023-11-21T03:49:41;10.07;99.99
69776;DHT22;57049;51.450;-2.516;2023-11-21T03:52:07;10.04;99.99
69776;DHT22;57049;51.450;-2.516;2023-11-21T03:54:33;10.04;99.99
69776;DHT22;57049;51.450;-2.516;2023-11-21T03:56:58;10.04;99.99
69776;DHT22;57049;51.450;-2.516;2023-11-21T03:59:23;10.04;99.99
69776;DHT22;57049;51.450;-2.516;2023-11-21T04:01:50;10.07;99.99
69776;DHT22;57049;51.450;-2.516;2023-11-21T04:04:15;10.04;99.99
69776;DHT22;57049;51.450;-2.516;2023-11-21T04:06:41;10.07;99.99
69776;DHT22;57049;51.450;-2.516;2023-11-21T04:09:07;10.04;99.99
69776;DHT22;57049;51.450;-2.516;2023-11-21T04:11:32;9.99;99.99
69776;DHT22;57049;51.450;-2.516;2023-11-21T04:13:58;9.99;99.99
69776;DHT22;57049;51.450;-2.516;2023-11-21T04:16:23;9.99;99.99
69776;DHT22;57049;51.450;-2.516;2023-11-21T04:18:49;9.99;99.99
69776;DHT22;57049;51.450;-2.516;2023-11-21T04:21:14;9.96;99.99
69776;DHT22;57049;51.450;-2.516;2023-11-21T04:23:40;9.94;99.99
69776;DHT22;57049;51.450;-2.516;2023-11-21T04:26:05;9.89;99.99
69776;DHT22;57049;51.450;-2.516;2023-11-21T04:28:31;9.89;99.99
69776;DHT22;57049;51.450;-2.516;2023-11-21T04:30:57;9.90;99.99
69776;DHT22;57049;51.450;-2.516;2023-11-21T04:33:22;9.89;99.62
69776;DHT22;57049;51.450;-2.516;2023-11-21T04:35:48;9.79;98.19
69776;DHT22;57049;51.450;-2.516;2023-11-21T04:38:13;9.76;97.89
69776;DHT22;57049;51.450;-2.516;2023-11-21T04:40:39;9.72;97.69
69776;DHT22;57049;51.450;-2.516;2023-11-21T04:43:05;9.69;97.01
69776;DHT22;57049;51.450;-2.516;2023-11-21T04:45:30;9.70;96.16
69776;DHT22;57049;51.450;-2.516;2023-11-21T04:47:56;9.68;95.82
69776;DHT22;57049;51.450;-2.516;2023-11-21T04:50:21;9.69;95.86
69776;DHT22;57049;51.450;-2.516;2023-11-21T04:52:47;9.66;96.07
69776;DHT22;57049;51.450;-2.516;2023-11-21T04:55:13;9.68;96.15
69776;DHT22;57049;51.450;-2.516;2023-11-21T04:57:39;9.59;95.52
69776;DHT22;57049;51.450;-2.516;2023-11-21T05:00:08;9.58;95.52
69776;DHT22;57049;51.450;-2.516;2023-11-21T05:02:34;9.56;95.67
69776;DHT22;57049;51.450;-2.516;2023-11-21T05:05:00;9.56;96.26
69776;DHT22;57049;51.450;-2.516;2023-11-21T05:07:26;9.52;95.90
69776;DHT22;57049;51.450;-2.516;2023-11-21T05:09:54;9.49;95.64
69776;DHT22;57049;51.450;-2.516;2023-11-21T05:12:21;9.52;95.88
69776;DHT22;57049;51.450;-2.516;2023-11-21T05:14:49;9.50;95.69
69776;DHT22;57049;51.450;-2.516;2023-11-21T05:17:14;9.49;95.85
69776;DHT22;57049;51.450;-2.516;2023-11-21T05:19:39;9.52;95.44
69776;DHT22;57049;51.450;-2.516;2023-11-21T05:22:05;9.50;94.91
69776;DHT22;57049;51.450;-2.516;2023-11-21T05:24:31;9.49;95.11
69776;DHT22;57049;51.450;-2.516;2023-11-21T05:26:56;9.50;95.24
69776;DHT22;57049;51.450;-2.516;2023-11-21T05:29:23;9.48;94.83
69776;DHT22;57049;51.450;-2.516;2023-11-21T05:31:48;9.48;94.91
69776;DHT22;57049;51.450;-2.516;2023-11-21T05:34:14;9.41;94.39
69776;DHT22;57049;51.450;-2.516;2023-11-21T05:36:43;9.42;94.04
69776;DHT22;57049;51.450;-2.516;2023-11-21T05:39:11;9.38;92.90
69776;DHT22;57049;51.450;-2.516;2023-11-21T05:41:37;9.39;92.51
69776;DHT22;57049;51.450;-2.516;2023-11-21T05:44:02;9.38;93.11
69776;DHT22;57049;51.450;-2.516;2023-11-21T05:46:28;9.36;92.92
69776;DHT22;57049;51.450;-2.516;2023-11-21T05:48:53;9.39;92.93
69776;DHT22;57049;51.450;-2.516;2023-11-21T05:51:20;9.36;93.48
69776;DHT22;57049;51.450;-2.516;2023-11-21T05:53:45;9.34;92.87
69776;DHT22;57049;51.450;-2.516;2023-11-21T05:56:12;9.34;92.71
69776;DHT22;57049;51.450;-2.516;2023-11-21T05:58:38;9.35;92.81
69776;DHT22;57049;51.450;-2.516;2023-11-21T06:01:05;9.36;92.07
69776;DHT22;57049;51.450;-2.516;2023-11-21T06:03:32;9.31;92.01
69776;DHT22;57049;51.450;-2.516;2023-11-21T06:05:58;9.29;92.22
69776;DHT22;57049;51.450;-2.516;2023-11-21T06:08:23;9.32;92.24
69776;DHT22;57049;51.450;-2.516;2023-11-21T06:10:50;9.29;91.69
69776;DHT22;57049;51.450;-2.516;2023-11-21T06:13:15;9.28;92.05
69776;DHT22;57049;51.450;-2.516;2023-11-21T06:15:41;9.29;91.26
69776;DHT22;57049;51.450;-2.516;2023-11-21T06:18:06;9.31;91.65
69776;DHT22;57049;51.450;-2.516;2023-11-21T06:20:35;9.27;91.41
69776;DHT22;57049;51.450;-2.516;2023-11-21T06:23:02;9.28;91.60
69776;DHT22;57049;51.450;-2.516;2023-11-21T06:25:29;9.31;91.64
69776;DHT22;57049;51.450;-2.516;2023-11-21T06:27:54;9.25;91.64
69776;DHT22;57049;51.450;-2.516;2023-11-21T06:30:21;9.22;91.30
69776;DHT22;57049;51.450;-2.516;2023-11-21T06:32:47;9.22;91.04
69776;DHT22;57049;51.450;-2.516;2023-11-21T06:35:13;9.27;91.11
69776;DHT22;57049;51.450;-2.516;2023-11-21T06:37:38;9.25;91.17
69776;DHT22;57049;51.450;-2.516;2023-11-21T06:40:04;9.27;90.72
69776;DHT22;57049;51.450;-2.516;2023-11-21T06:42:30;9.28;90.10
69776;DHT22;57049;51.450;-2.516;2023-11-21T06:44:56;9.32;88.39
69776;DHT22;57049;51.450;-2.516;2023-11-21T06:47:25;9.31;88.34
69776;DHT22;57049;51.450;-2.516;2023-11-21T06:49:52;9.28;88.57
69776;DHT22;57049;51.450;-2.516;2023-11-21T06:52:18;9.31;89.19
69776;DHT22;57049;51.450;-2.516;2023-11-21T06:54:44;9.28;88.62
69776;DHT22;57049;51.450;-2.516;2023-11-21T06:57:10;9.29;88.01
69776;DHT22;57049;51.450;-2.516;2023-11-21T06:59:36;9.24;88.35
69776;DHT22;57049;51.450;-2.516;2023-11-21T07:02:01;9.25;88.38
69776;DHT22;57049;51.450;-2.516;2023-11-21T07:04:27;9.22;88.55
69776;DHT22;57049;51.450;-2.516;2023-11-21T07:06:56;9.24;89.00
69776;DHT22;57049;51.450;-2.516;2023-11-21T07:09:21;9.19;89.75
69776;DHT22;57049;51.450;-2.516;2023-11-21T07:11:48;9.19;89.73
69776;DHT22;57049;51.450;-2.516;2023-11-21T07:14:14;9.17;89.42
69776;DHT22;57049;51.450;-2.516;2023-11-21T07:16:40;9.12;89.50
69776;DHT22;57049;51.450;-2.516;2023-11-21T07:19:06;9.17;89.98
69776;DHT22;57049;51.450;-2.516;2023-11-21T07:21:35;9.21;89.66
69776;DHT22;57049;51.450;-2.516;2023-11-21T07:24:04;9.14;89.42
69776;DHT22;57049;51.450;-2.516;2023-11-21T07:26:31;9.15;89.10
69776;DHT22;57049;51.450;-2.516;2023-11-21T07:28:58;9.17;89.75
69776;DHT22;57049;51.450;-2.516;2023-11-21T07:31:24;9.14;89.29
69776;DHT22;57049;51.450;-2.516;2023-11-21T07:33:49;9.17;88.71
69776;DHT22;57049;51.450;-2.516;2023-11-21T07:36:16;9.19;88.61
69776;DHT22;57049;51.450;-2.516;2023-11-21T07:38:43;9.24;88.58
69776;DHT22;57049;51.450;-2.516;2023-11-21T07:41:09;9.22;88.65
69776;DHT22;57049;51.450;-2.516;2023-11-21T07:43:35;9.21;89.03
69776;DHT22;57049;51.450;-2.516;2023-11-21T07:46:02;9.25;89.19
69776;DHT22;57049;51.450;-2.516;2023-11-21T07:48:29;9.18;89.84
69776;DHT22;57049;51.450;-2.516;2023-11-21T07:50:55;9.18;89.94
69776;DHT22;57049;51.450;-2.516;2023-11-21T07:53:21;9.18;89.46
69776;DHT22;57049;51.450;-2.516;2023-11-21T07:55:47;9.18;89.72
69776;DHT22;57049;51.450;-2.516;2023-11-21T07:58:12;9.17;89.56
69776;DHT22;57049;51.450;-2.516;2023-11-21T08:00:38;9.24;90.01
69776;DHT22;57049;51.450;-2.516;2023-11-21T08:03:05;9.24;89.84
69776;DHT22;57049;51.450;-2.516;2023-11-21T08:05:31;9.22;89.41
69776;DHT22;57049;51.450;-2.516;2023-11-21T08:07:56;9.22;90.13
69776;DHT22;57049;51.450;-2.516;2023-11-21T08:10:22;9.25;90.37
69776;DHT22;57049;51.450;-2.516;2023-11-21T08:12:48;9.25;90.72
69776;DHT22;57049;51.450;-2.516;2023-11-21T08:15:16;9.29;90.53
69776;DHT22;57049;51.450;-2.516;2023-11-21T08:17:41;9.21;89.93
69776;DHT22;57049;51.450;-2.516;2023-11-21T08:20:07;9.21;90.81
69776;DHT22;57049;51.450;-2.516;2023-11-21T08:22:36;9.29;90.59
69776;DHT22;57049;51.450;-2.516;2023-11-21T08:25:01;9.25;90.76
69776;DHT22;57049;51.450;-2.516;2023-11-21T08:27:29;9.25;90.37
69776;DHT22;57049;51.450;-2.516;2023-11-21T08:29:55;9.28;90.42
69776;DHT22;57049;51.450;-2.516;2023-11-21T08:32:22;9.34;90.56
69776;DHT22;57049;51.450;-2.516;2023-11-21T08:34:47;9.27;90.81
69776;DHT22;57049;51.450;-2.516;2023-11-21T08:37:16;9.35;90.92
69776;DHT22;57049;51.450;-2.516;2023-11-21T08:39:41;9.28;90.51
69776;DHT22;57049;51.450;-2.516;2023-11-21T08:42:07;9.29;90.45
69776;DHT22;57049;51.450;-2.516;2023-11-21T08:44:33;9.29;90.94
69776;DHT22;57049;51.450;-2.516;2023-11-21T08:46:59;9.29;91.52
69776;DHT22;57049;51.450;-2.516;2023-11-21T08:49:24;9.35;91.28
69776;DHT22;57049;51.450;-2.516;2023-11-21T08:51:52;9.34;91.12
69776;DHT22;57049;51.450;-2.516;2023-11-21T08:54:21;9.32;91.21
69776;DHT22;57049;51.450;-2.516;2023-11-21T08:56:46;9.39;91.22
69776;DHT22;57049;51.450;-2.516;2023-11-21T08:59:12;9.39;90.85
69776;DHT22;57049;51.450;-2.516;2023-11-21T09:01:39;9.46;91.05
69776;DHT22;57049;51.450;-2.516;2023-11-21T09:04:08;9.48;91.07
69776;DHT22;57049;51.450;-2.516;2023-11-21T09:06:33;9.49;90.71
69776;DHT22;57049;51.450;-2.516;2023-11-21T09:08:59;9.55;90.82
69776;DHT22;57049;51.450;-2.516;2023-11-21T09:11:24;9.46;90.60
69776;DHT22;57049;51.450;-2.516;2023-11-21T09:13:50;9.48;91.04
69776;DHT22;57049;51.450;-2.516;2023-11-21T09:16:16;9.49;91.16
69776;DHT22;57049;51.450;-2.516;2023-11-21T09:18:42;9.46;91.40
69776;DHT22;57049;51.450;-2.516;2023-11-21T09:21:08;9.50;91.00
69776;DHT22;57049;51.450;-2.516;2023-11-21T09:23:35;9.46;90.89
69776;DHT22;57049;51.450;-2.516;2023-11-21T09:26:00;9.45;90.71
69776;DHT22;57049;51.450;-2.516;2023-11-21T09:28:27;9.50;90.78
69776;DHT22;57049;51.450;-2.516;2023-11-21T09:30:53;9.49;90.49
69776;DHT22;57049;51.450;-2.516;2023-11-21T09:33:19;9.60;91.40
69776;DHT22;57049;51.450;-2.516;2023-11-21T09:35:44;9.55;90.58
69776;DHT22;57049;51.450;-2.516;2023-11-21T09:38:10;9.55;90.96
69776;DHT22;57049;51.450;-2.516;2023-11-21T09:40:36;9.58;91.22
69776;DHT22;57049;51.450;-2.516;2023-11-21T09:43:09;9.53;91.42
69776;DHT22;57049;51.450;-2.516;2023-11-21T09:45:45;9.46;91.78
69776;DHT22;57049;51.450;-2.516;2023-11-21T09:48:13;9.48;91.88
69776;DHT22;57049;51.450;-2.516;2023-11-21T09:50:39;9.52;91.89
69776;DHT22;57049;51.450;-2.516;2023-11-21T09:53:19;9.52;91.80
69776;DHT22;57049;51.450;-2.516;2023-11-21T09:55:51;9.53;92.03
69776;DHT22;57049;51.450;-2.516;2023-11-21T09:58:18;9.48;91.55
69776;DHT22;57049;51.450;-2.516;2023-11-21T10:00:49;9.56;91.91
69776;DHT22;57049;51.450;-2.516;2023-11-21T10:03:15;9.53;92.12
69776;DHT22;57049;51.450;-2.516;2023-11-21T10:05:45;9.59;92.41
69776;DHT22;57049;51.450;-2.516;2023-11-21T10:08:13;9.48;92.14
69776;DHT22;57049;51.450;-2.516;2023-11-21T10:10:46;9.53;92.23
69776;DHT22;57049;51.450;-2.516;2023-11-21T10:13:15;9.50;92.43
69776;DHT22;57049;51.450;-2.516;2023-11-21T10:15:49;9.70;92.32
69776;DHT22;57049;51.450;-2.516;2023-11-21T10:18:16;9.63;92.00
69776;DHT22;57049;51.450;-2.516;2023-11-21T10:20:42;9.62;91.88
69776;DHT22;57049;51.450;-2.516;2023-11-21T10:23:09;9.58;91.89
69776;DHT22;57049;51.450;-2.516;2023-11-21T10:25:37;9.63;92.48
69776;DHT22;57049;51.450;-2.516;2023-11-21T10:28:03;9.65;92.05
69776;DHT22;57049;51.450;-2.516;2023-11-21T10:30:35;9.68;92.28
69776;DHT22;57049;51.450;-2.516;2023-11-21T10:33:02;9.76;92.51
69776;DHT22;57049;51.450;-2.516;2023-11-21T10:35:45;9.82;91.99
69776;DHT22;57049;51.450;-2.516;2023-11-21T10:38:19;9.76;91.84
69776;DHT22;57049;51.450;-2.516;2023-11-21T10:40:48;9.73;92.20
69776;DHT22;57049;51.450;-2.516;2023-11-21T10:43:14;9.72;92.26
69776;DHT22;57049;51.450;-2.516;2023-11-21T10:45:41;9.73;92.31
69776;DHT22;57049;51.450;-2.516;2023-11-21T10:48:13;9.70;92.53
69776;DHT22;57049;51.450;-2.516;2023-11-21T10:50:46;9.73;92.78
69776;DHT22;57049;51.450;-2.516;2023-11-21T10:53:12;9.65;93.15
69776;DHT22;57049;51.450;-2.516;2023-11-21T10:55:38;9.72;93.23
69776;DHT22;57049;51.450;-2.516;2023-11-21T10:58:04;9.69;93.39
69776;DHT22;57049;51.450;-2.516;2023-11-21T11:00:32;9.68;93.63
69776;DHT22;57049;51.450;-2.516;2023-11-21T11:02:58;9.70;93.73
69776;DHT22;57049;51.450;-2.516;2023-11-21T11:05:26;9.73;93.32
69776;DHT22;57049;51.450;-2.516;2023-11-21T11:08:00;9.79;93.44
69776;DHT22;57049;51.450;-2.516;2023-11-21T11:10:28;9.78;92.96
69776;DHT22;57049;51.450;-2.516;2023-11-21T11:12:58;9.85;92.52
69776;DHT22;57049;51.450;-2.516;2023-11-21T11:15:27;9.92;93.13
69776;DHT22;57049;51.450;-2.516;2023-11-21T11:17:54;9.93;92.75
69776;DHT22;57049;51.450;-2.516;2023-11-21T11:20:34;9.93;92.37
69776;DHT22;57049;51.450;-2.516;2023-11-21T11:25:49;10.03;91.85
69776;DHT22;57049;51.450;-2.516;2023-11-21T11:28:31;10.03;91.95
69776;DHT22;57049;51.450;-2.516;2023-11-21T11:31:21;10.09;92.16
69776;DHT22;57049;51.450;-2.516;2023-11-21T11:34:00;10.13;91.83
69776;DHT22;57049;51.450;-2.516;2023-11-21T11:36:35;10.07;92.01
69776;DHT22;57049;51.450;-2.516;2023-11-21T11:39:02;10.04;91.89
69776;DHT22;57049;51.450;-2.516;2023-11-21T11:41:34;10.09;92.29
69776;DHT22;57049;51.450;-2.516;2023-11-21T11:44:00;10.04;92.90
69776;DHT22;57049;51.450;-2.516;2023-11-21T11:46:42;10.00;93.02
69776;DHT22;57049;51.450;-2.516;2023-11-21T11:49:23;9.96;93.22
69776;DHT22;57049;51.450;-2.516;2023-11-21T11:53:11;10.01;93.03
69776;DHT22;57049;51.450;-2.516;2023-11-21T11:55:09;10.06;93.15
69776;DHT22;57049;51.450;-2.516;2023-11-21T11:57:40;9.97;93.40
69776;DHT22;57049;51.450;-2.516;2023-11-21T12:02:39;10.01;92.63
69776;DHT22;57049;51.450;-2.516;2023-11-21T12:05:09;9.96;92.47
69776;DHT22;57049;51.450;-2.516;2023-11-21T12:10:22;9.97;91.47
69776;DHT22;57049;51.450;-2.516;2023-11-21T12:12:51;10.04;91.23
69776;DHT22;57049;51.450;-2.516;2023-11-21T12:15:23;10.04;91.53
69776;DHT22;57049;51.450;-2.516;2023-11-21T12:17:49;10.17;91.45
69776;DHT22;57049;51.450;-2.516;2023-11-21T12:20:18;10.11;90.85
69776;DHT22;57049;51.450;-2.516;2023-11-21T12:22:46;10.09;90.87
69776;DHT22;57049;51.450;-2.516;2023-11-21T12:25:21;10.09;90.77
69776;DHT22;57049;51.450;-2.516;2023-11-21T12:27:49;10.14;91.15
69776;DHT22;57049;51.450;-2.516;2023-11-21T12:30:16;10.09;90.84
69776;DHT22;57049;51.450;-2.516;2023-11-21T12:32:48;10.11;91.20
69776;DHT22;57049;51.450;-2.516;2023-11-21T12:35:14;10.13;91.25
69776;DHT22;57049;51.450;-2.516;2023-11-21T12:37:41;10.09;91.18
69776;DHT22;57049;51.450;-2.516;2023-11-21T12:40:10;10.14;91.34
69776;DHT22;57049;51.450;-2.516;2023-11-21T12:42:41;10.14;91.35
69776;DHT22;57049;51.450;-2.516;2023-11-21T12:47:54;10.18;91.16
69776;DHT22;57049;51.450;-2.516;2023-11-21T12:50:22;10.18;91.41
69776;DHT22;57049;51.450;-2.516;2023-11-21T12:52:50;10.29;91.48
69776;DHT22;57049;51.450;-2.516;2023-11-21T12:55:17;10.29;91.07
69776;DHT22;57049;51.450;-2.516;2023-11-21T12:57:51;10.24;91.41
69776;DHT22;57049;51.450;-2.516;2023-11-21T13:00:26;10.27;90.71
69776;DHT22;57049;51.450;-2.516;2023-11-21T13:02:54;10.27;90.81
69776;DHT22;57049;51.450;-2.516;2023-11-21T13:05:36;10.17;90.75
69776;DHT22;57049;51.450;-2.516;2023-11-21T13:08:06;10.18;91.05
69776;DHT22;57049;51.450;-2.516;2023-11-21T13:10:34;10.18;90.52
69776;DHT22;57049;51.450;-2.516;2023-11-21T13:13:03;10.11;90.66
69776;DHT22;57049;51.450;-2.516;2023-11-21T13:15:39;10.10;90.61
69776;DHT22;57049;51.450;-2.516;2023-11-21T13:18:06;10.09;90.73
69776;DHT22;57049;51.450;-2.516;2023-11-21T13:20:32;10.06;90.79
69776;DHT22;57049;51.450;-2.516;2023-11-21T13:22:58;10.10;91.17
69776;DHT22;57049;51.450;-2.516;2023-11-21T13:25:30;10.03;90.90
69776;DHT22;57049;51.450;-2.516;2023-11-21T13:27:59;10.10;91.01
69776;DHT22;57049;51.450;-2.516;2023-11-21T13:30:26;10.16;91.16
69776;DHT22;57049;51.450;-2.516;2023-11-21T13:32:55;10.10;90.98
69776;DHT22;57049;51.450;-2.516;2023-11-21T13:35:23;10.07;91.15
69776;DHT22;57049;51.450;-2.516;2023-11-21T13:37:57;10.06;91.23
69776;DHT22;57049;51.450;-2.516;2023-11-21T13:40:25;10.11;91.57
69776;DHT22;57049;51.450;-2.516;2023-11-21T13:42:55;10.07;91.48
69776;DHT22;57049;51.450;-2.516;2023-11-21T13:45:24;10.01;91.49
69776;DHT22;57049;51.450;-2.516;2023-11-21T13:47:53;10.06;91.71
69776;DHT22;57049;51.450;-2.516;2023-11-21T13:50:23;10.07;91.86
69776;DHT22;57049;51.450;-2.516;2023-11-21T13:52:53;9.99;91.86
69776;DHT22;57049;51.450;-2.516;2023-11-21T13:55:20;10.09;91.86
69776;DHT22;57049;51.450;-2.516;2023-11-21T13:57:49;10.03;91.99
69776;DHT22;57049;51.450;-2.516;2023-11-21T14:00:17;10.00;92.13
69776;DHT22;57049;51.450;-2.516;2023-11-21T14:03:01;10.01;92.22
69776;DHT22;57049;51.450;-2.516;2023-11-21T14:05:30;9.96;92.30
69776;DHT22;57049;51.450;-2.516;2023-11-21T14:07:57;10.04;92.38
69776;DHT22;57049;51.450;-2.516;2023-11-21T14:10:29;9.99;91.98
69776;DHT22;57049;51.450;-2.516;2023-11-21T14:13:02;9.94;91.99
69776;DHT22;57049;51.450;-2.516;2023-11-21T14:15:28;10.03;92.34
69776;DHT22;57049;51.450;-2.516;2023-11-21T14:17:54;10.04;92.11
69776;DHT22;57049;51.450;-2.516;2023-11-21T14:20:20;9.94;91.66
69776;DHT22;57049;51.450;-2.516;2023-11-21T14:22:46;9.94;91.73
69776;DHT22;57049;51.450;-2.516;2023-11-21T14:25:12;9.86;91.46
69776;DHT22;57049;51.450;-2.516;2023-11-21T14:27:39;9.89;91.77
69776;DHT22;57049;51.450;-2.516;2023-11-21T14:30:05;9.89;91.63
69776;DHT22;57049;51.450;-2.516;2023-11-21T14:32:31;9.90;91.61
69776;DHT22;57049;51.450;-2.516;2023-11-21T14:34:57;9.86;91.47
69776;DHT22;57049;51.450;-2.516;2023-11-21T14:37:23;9.80;91.36
69776;DHT22;57049;51.450;-2.516;2023-11-21T14:39:49;9.83;91.41
69776;DHT22;57049;51.450;-2.516;2023-11-21T14:42:15;9.86;91.54
69776;DHT22;57049;51.450;-2.516;2023-11-21T14:44:41;9.90;91.27
69776;DHT22;57049;51.450;-2.516;2023-11-21T14:47:08;9.87;90.93
69776;DHT22;57049;51.450;-2.516;2023-11-21T14:49:42;9.87;90.87
69776;DHT22;57049;51.450;-2.516;2023-11-21T14:52:33;9.90;90.82
69776;DHT22;57049;51.450;-2.516;2023-11-21T14:55:00;9.97;90.84
69776;DHT22;57049;51.450;-2.516;2023-11-21T14:57:46;9.89;90.46
69776;DHT22;57049;51.450;-2.516;2023-11-21T15:00:19;9.86;90.54
69776;DHT22;57049;51.450;-2.516;2023-11-21T15:03:01;9.85;90.66
69776;DHT22;57049;51.450;-2.516;2023-11-21T15:05:27;9.82;91.09
69776;DHT22;57049;51.450;-2.516;2023-11-21T15:07:53;9.80;91.01
69776;DHT22;57049;51.450;-2.516;2023-11-21T15:10:33;9.82;91.47
69776;DHT22;57049;51.450;-2.516;2023-11-21T15:13:13;9.76;91.51
69776;DHT22;57049;51.450;-2.516;2023-11-21T15:15:41;9.72;91.59
69776;DHT22;57049;51.450;-2.516;2023-11-21T15:18:06;9.63;92.07
69776;DHT22;57049;51.450;-2.516;2023-11-21T15:20:32;9.63;92.23
69776;DHT22;57049;51.450;-2.516;2023-11-21T15:22:58;9.60;92.52
69776;DHT22;57049;51.450;-2.516;2023-11-21T15:25:23;9.49;92.77
69776;DHT22;57049;51.450;-2.516;2023-11-21T15:27:49;9.50;92.81
69776;DHT22;57049;51.450;-2.516;2023-11-21T15:30:16;9.46;92.20
69776;DHT22;57049;51.450;-2.516;2023-11-21T15:32:46;9.38;91.83
69776;DHT22;57049;51.450;-2.516;2023-11-21T15:35:11;9.34;91.91
69776;DHT22;57049;51.450;-2.516;2023-11-21T15:37:39;9.35;91.82
69776;DHT22;57049;51.450;-2.516;2023-11-21T15:40:10;9.35;92.02